Time;durP1;ratioP1;P1;durP2;ratioP2;P2;SDS_P1;SDS_P2;PMS_P1;PMS_P2;Temp;Humidity;BMP_temperature;BMP_pressure;BME280_temperature;BME280_humidity;BME280_pressure;Samples;Min_cycle;Max_cycle;Signal;HPM_P1;HPM_P2
2021/12/12 00:01:50;;;;;;;395.83;364.20;;;6.40;99.90;;;;;;5036858;28;20675;-81
2021/12/12 00:04:20;;;;;;;466.73;428.20;;;6.40;99.90;;;;;;5022078;28;20238;-79
2021/12/12 00:06:55;;;;;;;471.83;433.03;;;6.40;99.90;;;;;;5039512;28;20275;-80
2021/12/12 00:09:28;;;;;;;406.80;374.13;;;6.30;99.90;;;;;;5039507;28;20201;-79
2021/12/12 00:11:55;;;;;;;424.93;388.33;;;6.30;99.90;;;;;;5037797;28;20845;-80
2021/12/12 00:14:29;;;;;;;435.23;399.07;;;6.30;99.90;;;;;;5038769;28;20190;-79
2021/12/12 00:16:55;;;;;;;461.93;423.67;;;6.30;99.90;;;;;;5027779;28;20504;-79
2021/12/12 00:19:23;;;;;;;481.70;442.03;;;6.30;99.90;;;;;;5037413;28;20214;-80
2021/12/12 00:21:52;;;;;;;486.17;445.83;;;6.30;99.90;;;;;;5032227;28;20209;-79
2021/12/12 00:24:18;;;;;;;489.73;449.80;;;6.30;99.90;;;;;;5035945;28;20225;-79
2021/12/12 00:26:47;;;;;;;515.63;471.97;;;6.30;99.90;;;;;;5037998;28;20320;-79
2021/12/12 00:29:15;;;;;;;520.83;477.00;;;6.30;99.90;;;;;;5036469;28;20198;-79
2021/12/12 00:31:43;;;;;;;521.43;477.57;;;6.30;99.90;;;;;;5035890;28;20280;-78
2021/12/12 00:34:10;;;;;;;545.87;499.53;;;6.30;99.90;;;;;;5026573;28;20198;-80
2021/12/12 00:36:38;;;;;;;543.17;497.13;;;6.30;99.90;;;;;;4993490;28;20198;-78
2021/12/12 00:39:26;;;;;;;542.43;495.83;;;6.20;99.90;;;;;;5009884;28;20215;-78
2021/12/12 00:41:54;;;;;;;550.03;502.33;;;6.20;99.90;;;;;;5037425;28;20179;-79
2021/12/12 00:44:21;;;;;;;544.27;497.23;;;6.20;99.90;;;;;;5034562;28;20194;-79
2021/12/12 00:46:47;;;;;;;544.87;497.83;;;6.20;99.90;;;;;;5038080;28;20213;-78
2021/12/12 00:49:14;;;;;;;542.07;495.97;;;6.20;99.90;;;;;;5037471;28;20267;-78
2021/12/12 00:51:43;;;;;;;542.33;496.07;;;6.20;99.90;;;;;;5031116;28;20190;-79
2021/12/12 00:54:11;;;;;;;546.23;499.13;;;6.20;99.90;;;;;;5040651;28;20177;-79
2021/12/12 00:56:37;;;;;;;540.27;493.27;;;6.20;99.90;;;;;;5039055;28;20218;-79
2021/12/12 00:59:04;;;;;;;539.17;492.73;;;6.20;99.90;;;;;;5039040;28;20563;-77
2021/12/12 01:01:36;;;;;;;552.37;504.57;;;6.20;99.90;;;;;;5007926;28;20186;-79
2021/12/12 01:04:30;;;;;;;550.10;502.27;;;6.20;99.90;;;;;;5040992;28;20225;-78
2021/12/12 01:07:00;;;;;;;546.17;499.27;;;6.30;99.90;;;;;;5040441;28;20257;-79
2021/12/12 01:09:34;;;;;;;548.47;501.37;;;6.20;99.90;;;;;;5025796;28;20206;-79
2021/12/12 01:12:05;;;;;;;542.60;495.70;;;6.20;99.90;;;;;;5041397;28;20183;-79
2021/12/12 01:14:35;;;;;;;541.13;494.43;;;6.30;99.90;;;;;;5040936;28;20186;-77
2021/12/12 01:17:06;;;;;;;539.33;492.70;;;6.30;99.90;;;;;;5042514;28;20183;-79
2021/12/12 01:19:40;;;;;;;536.87;490.13;;;6.30;99.90;;;;;;5025149;28;20278;-79
2021/12/12 01:22:15;;;;;;;540.10;493.73;;;6.30;99.90;;;;;;5042151;28;20189;-78
2021/12/12 01:24:46;;;;;;;538.13;491.83;;;6.30;99.90;;;;;;5039668;28;20192;-79
2021/12/12 01:27:13;;;;;;;539.50;492.60;;;6.30;99.90;;;;;;5023444;28;20730;-80
2021/12/12 01:29:39;;;;;;;551.33;504.10;;;6.40;99.90;;;;;;5040126;28;21016;-79
2021/12/12 01:32:11;;;;;;;543.93;497.13;;;6.40;99.90;;;;;;5040781;28;20268;-80
2021/12/12 01:34:38;;;;;;;541.30;495.50;;;6.40;99.90;;;;;;5039375;28;20601;-80
2021/12/12 01:39:53;;;;;;;533.70;488.43;;;6.40;99.90;;;;;;5043552;28;20222;-78
2021/12/12 01:42:59;;;;;;;539.67;493.00;;;6.40;99.90;;;;;;5023146;28;20183;-78
2021/12/12 01:45:33;;;;;;;530.10;484.87;;;6.40;99.90;;;;;;5022905;28;20182;-79
2021/12/12 01:48:04;;;;;;;534.17;488.33;;;6.40;99.90;;;;;;5039747;28;20179;-79
2021/12/12 01:50:42;;;;;;;536.23;490.10;;;6.40;99.90;;;;;;5022610;28;21078;-79
2021/12/12 01:53:10;;;;;;;545.13;498.17;;;6.40;99.90;;;;;;5040142;28;20178;-79
2021/12/12 01:55:42;;;;;;;547.67;500.60;;;6.50;99.90;;;;;;5024831;28;20270;-79
2021/12/12 01:58:13;;;;;;;580.50;530.03;;;6.40;99.90;;;;;;5037986;28;20273;-78
2021/12/12 02:00:46;;;;;;;575.27;525.30;;;6.40;99.90;;;;;;5022058;28;20193;-78
2021/12/12 02:03:15;;;;;;;575.57;525.80;;;6.40;99.90;;;;;;5027205;28;20277;-78
2021/12/12 02:05:41;;;;;;;573.57;523.73;;;6.40;99.90;;;;;;5029196;28;20279;-79
2021/12/12 02:08:10;;;;;;;575.37;525.27;;;6.50;99.90;;;;;;5041291;28;20204;-78
2021/12/12 02:10:41;;;;;;;583.27;532.80;;;6.50;99.90;;;;;;5023792;28;20245;-79
2021/12/12 02:13:10;;;;;;;586.57;536.07;;;6.50;99.90;;;;;;5020905;28;20178;-79
2021/12/12 02:15:37;;;;;;;591.60;540.40;;;6.50;99.90;;;;;;5039634;28;20815;-80
2021/12/12 02:18:11;;;;;;;591.73;540.80;;;6.50;99.90;;;;;;5022336;28;20284;-79
2021/12/12 02:20:47;;;;;;;586.20;535.50;;;6.50;99.90;;;;;;5023069;28;20613;-80
2021/12/12 02:23:26;;;;;;;595.73;544.90;;;6.60;99.90;;;;;;5023556;28;20190;-78
2021/12/12 02:37:00;;;;;;;594.33;543.37;;;6.70;99.90;;;;;;5024994;28;20194;-80
2021/12/12 02:39:26;;;;;;;596.23;544.97;;;6.70;99.90;;;;;;5001200;28;20232;-80
2021/12/12 02:41:58;;;;;;;600.93;549.30;;;6.70;99.90;;;;;;5002224;28;20261;-78
2021/12/12 02:44:31;;;;;;;597.10;545.93;;;6.70;99.90;;;;;;5020225;28;20210;-78
2021/12/12 02:46:59;;;;;;;600.40;549.63;;;6.70;99.90;;;;;;5019861;28;20541;-79
2021/12/12 02:52:31;;;;;;;600.10;548.47;;;6.70;99.90;;;;;;4962023;28;20192;-79
2021/12/12 02:55:04;;;;;;;595.60;544.03;;;6.70;99.90;;;;;;4990435;28;20275;-78
2021/12/12 02:57:30;;;;;;;591.67;540.13;;;6.70;99.90;;;;;;5001614;28;20178;-78
2021/12/12 02:59:55;;;;;;;598.40;546.73;;;6.70;99.90;;;;;;5001852;28;20253;-78
2021/12/12 03:02:27;;;;;;;595.63;544.50;;;6.70;99.90;;;;;;4983548;28;20210;-79
2021/12/12 03:04:59;;;;;;;593.53;542.20;;;6.70;99.90;;;;;;5001884;28;20195;-79
2021/12/12 03:07:25;;;;;;;600.67;549.20;;;6.70;99.90;;;;;;5018831;28;20184;-77
2021/12/12 03:09:55;;;;;;;596.47;545.23;;;6.70;99.90;;;;;;5000207;28;20208;-78
2021/12/12 03:12:33;;;;;;;598.60;547.10;;;6.70;99.90;;;;;;5018367;28;20187;-79
2021/12/12 03:15:13;;;;;;;599.53;548.07;;;6.70;99.90;;;;;;5020408;28;20238;-80
2021/12/12 03:17:41;;;;;;;597.63;545.90;;;6.70;99.90;;;;;;5019971;28;20205;-78
2021/12/12 03:20:23;;;;;;;601.73;550.10;;;6.70;99.90;;;;;;4990078;28;20218;-78
2021/12/12 03:23:18;;;;;;;595.17;543.77;;;6.70;99.90;;;;;;5001865;28;20192;-78
2021/12/12 03:25:46;;;;;;;592.63;541.33;;;6.70;99.90;;;;;;5001795;28;20605;-79
2021/12/12 03:28:16;;;;;;;590.97;539.63;;;6.70;99.90;;;;;;5018505;28;20241;-79
2021/12/12 03:30:44;;;;;;;594.27;543.07;;;6.70;99.90;;;;;;5018139;28;20207;-78
2021/12/12 03:33:10;;;;;;;595.03;543.60;;;6.70;99.90;;;;;;5018610;28;20703;-78
2021/12/12 03:35:36;;;;;;;596.67;544.60;;;6.80;99.90;;;;;;5000813;28;20294;-79
2021/12/12 03:38:03;;;;;;;600.33;548.03;;;6.80;99.90;;;;;;5003475;28;20290;-78
2021/12/12 03:40:33;;;;;;;599.00;547.13;;;6.80;99.90;;;;;;5010001;28;20746;-79
2021/12/12 03:43:03;;;;;;;602.87;550.87;;;6.80;99.90;;;;;;5037806;28;20189;-80
2021/12/12 03:45:29;;;;;;;599.93;547.57;;;6.80;99.90;;;;;;5038999;28;20190;-80
2021/12/12 03:48:07;;;;;;;595.70;543.63;;;6.80;99.90;;;;;;5024668;28;20187;-78
2021/12/12 03:50:36;;;;;;;591.70;540.33;;;6.80;99.90;;;;;;5039173;28;20583;-78
2021/12/12 03:53:04;;;;;;;590.90;539.50;;;6.80;99.90;;;;;;5038399;28;20194;-78
2021/12/12 03:55:30;;;;;;;596.10;544.73;;;6.80;99.90;;;;;;5020488;28;20186;-79
2021/12/12 03:57:57;;;;;;;597.97;545.83;;;6.90;99.90;;;;;;4987377;28;20189;-79
2021/12/12 04:00:30;;;;;;;594.30;542.60;;;6.90;99.90;;;;;;5022680;28;20596;-79
2021/12/12 04:02:57;;;;;;;600.50;548.63;;;6.90;99.90;;;;;;5020093;28;20191;-78
2021/12/12 04:05:23;;;;;;;593.87;541.63;;;6.90;99.90;;;;;;5037362;28;20218;-77
2021/12/12 04:07:51;;;;;;;603.67;551.07;;;6.90;99.90;;;;;;5027567;28;20197;-78
2021/12/12 04:10:20;;;;;;;604.23;551.90;;;6.90;99.90;;;;;;5022393;28;20217;-79
2021/12/12 04:12:48;;;;;;;605.60;552.40;;;7.00;99.90;;;;;;5037406;28;20189;-79
2021/12/12 04:15:14;;;;;;;605.50;552.90;;;7.00;99.90;;;;;;5040310;28;20624;-79
2021/12/12 04:17:40;;;;;;;600.57;548.07;;;7.00;99.90;;;;;;5037772;28;20659;-79
2021/12/12 04:20:36;;;;;;;602.20;549.57;;;7.00;99.90;;;;;;5021445;28;20244;-79
2021/12/12 04:23:12;;;;;;;596.70;544.40;;;7.00;99.90;;;;;;5003211;28;20234;-79
2021/12/12 04:25:38;;;;;;;597.23;544.73;;;7.00;99.90;;;;;;5022521;28;20204;-79
2021/12/12 04:28:04;;;;;;;597.80;545.53;;;7.00;99.90;;;;;;5033276;28;20189;-80
2021/12/12 04:30:30;;;;;;;601.70;549.33;;;7.00;99.90;;;;;;5036860;28;20248;-78
2021/12/12 04:32:56;;;;;;;600.13;547.47;;;7.00;99.90;;;;;;5020004;28;20667;-77
2021/12/12 04:35:28;;;;;;;604.20;551.63;;;7.10;99.90;;;;;;5037278;28;20206;-79
2021/12/12 04:37:57;;;;;;;598.97;546.60;;;7.10;99.90;;;;;;5038448;28;20253;-80
2021/12/12 04:40:25;;;;;;;597.57;545.33;;;7.10;99.90;;;;;;5035534;28;20186;-79
2021/12/12 04:42:53;;;;;;;593.27;541.23;;;7.10;99.90;;;;;;5029133;28;20691;-78
2021/12/12 04:45:51;;;;;;;601.73;548.93;;;7.10;99.90;;;;;;5022510;28;20559;-77
2021/12/12 04:51:34;;;;;;;597.30;544.50;;;7.10;99.90;;;;;;4997845;28;20658;-79
2021/12/12 04:54:23;;;;;;;596.53;543.27;;;7.20;99.90;;;;;;5037398;28;20289;-79
2021/12/12 04:56:58;;;;;;;593.67;541.10;;;7.20;99.90;;;;;;5036169;28;20214;-78
2021/12/12 04:59:51;;;;;;;599.40;546.37;;;7.20;99.90;;;;;;5020782;28;20395;-79
2021/12/12 05:02:31;;;;;;;604.13;551.00;;;7.20;99.90;;;;;;5018841;28;20186;-79
2021/12/12 05:05:04;;;;;;;603.97;551.23;;;7.30;99.90;;;;;;5017470;28;20207;-78
2021/12/12 05:07:48;;;;;;;604.10;550.93;;;7.30;99.90;;;;;;5035429;28;20186;-79
2021/12/12 05:10:25;;;;;;;599.90;547.43;;;7.30;99.90;;;;;;5020469;28;20206;-79
2021/12/12 05:13:14;;;;;;;602.43;549.67;;;7.30;99.90;;;;;;5039144;28;20185;-79
2021/12/12 05:16:01;;;;;;;595.07;542.57;;;7.40;99.90;;;;;;5039285;28;20209;-79
2021/12/12 05:18:31;;;;;;;601.23;547.80;;;7.40;99.90;;;;;;5035580;28;20179;-79
2021/12/12 05:21:03;;;;;;;559.47;509.83;;;7.40;99.90;;;;;;5032226;28;20308;-79
2021/12/12 05:23:31;;;;;;;554.23;504.97;;;7.40;99.90;;;;;;5020958;28;20601;-79
2021/12/12 05:26:00;;;;;;;544.53;495.60;;;7.40;99.90;;;;;;5037002;28;20192;-79
2021/12/12 05:29:07;;;;;;;540.40;492.13;;;7.40;99.90;;;;;;5037927;28;20217;-79
2021/12/12 05:31:34;;;;;;;529.97;482.00;;;7.40;99.90;;;;;;5018591;28;20221;-79
2021/12/12 05:34:01;;;;;;;527.30;479.03;;;7.40;99.90;;;;;;5034706;28;20216;-79
2021/12/12 05:36:29;;;;;;;529.23;481.13;;;7.50;99.90;;;;;;5005584;28;20569;-79
2021/12/12 05:38:58;;;;;;;517.67;470.57;;;7.50;99.90;;;;;;5029258;28;20312;-79
2021/12/12 05:41:25;;;;;;;521.03;474.10;;;7.50;99.90;;;;;;5041476;28;20193;-79
2021/12/12 05:43:56;;;;;;;514.30;468.10;;;7.50;99.90;;;;;;5042520;28;20194;-78
2021/12/12 05:46:23;;;;;;;511.07;465.23;;;7.50;99.90;;;;;;5040005;28;20200;-79
2021/12/12 05:48:50;;;;;;;511.33;464.97;;;7.60;99.90;;;;;;5027240;28;20566;-79
2021/12/12 05:51:17;;;;;;;509.87;463.23;;;7.60;99.90;;;;;;5034622;28;20499;-79
2021/12/12 05:53:44;;;;;;;506.20;460.37;;;7.60;99.90;;;;;;5022442;28;20847;-79
2021/12/12 05:56:11;;;;;;;496.33;451.17;;;7.60;99.90;;;;;;5041834;28;20219;-77
2021/12/12 05:58:37;;;;;;;488.43;444.80;;;7.60;99.90;;;;;;5040575;28;20659;-77
2021/12/12 06:01:07;;;;;;;493.73;448.57;;;7.70;99.90;;;;;;5041559;28;20191;-79
2021/12/12 06:03:37;;;;;;;495.87;450.37;;;7.70;99.90;;;;;;5038312;28;20215;-78
2021/12/12 06:06:05;;;;;;;489.07;445.07;;;7.70;99.90;;;;;;5055434;28;20549;-78
2021/12/12 06:08:32;;;;;;;483.10;439.70;;;7.70;99.90;;;;;;5039281;28;20231;-78
2021/12/12 06:11:00;;;;;;;483.70;440.30;;;7.80;99.90;;;;;;5034616;28;20352;-78
2021/12/12 06:13:27;;;;;;;481.83;438.70;;;7.80;99.90;;;;;;5039278;28;20248;-79
2021/12/12 06:15:55;;;;;;;478.33;435.77;;;7.80;99.90;;;;;;5042032;28;20191;-79
2021/12/12 06:18:23;;;;;;;484.40;441.43;;;7.80;99.90;;;;;;5039158;28;20497;-79
2021/12/12 06:20:49;;;;;;;480.50;438.37;;;7.80;99.90;;;;;;5032721;28;20214;-79
2021/12/12 06:23:17;;;;;;;474.43;431.30;;;7.80;99.90;;;;;;5055829;28;20205;-80
2021/12/12 06:25:44;;;;;;;468.80;427.20;;;7.90;99.90;;;;;;5040725;28;20233;-79
2021/12/12 06:28:16;;;;;;;471.17;428.53;;;7.90;99.90;;;;;;5019961;28;20208;-78
2021/12/12 06:30:41;;;;;;;475.30;432.17;;;7.90;99.90;;;;;;5037811;28;20198;-80
2021/12/12 06:33:10;;;;;;;468.93;427.57;;;7.90;99.90;;;;;;5054420;28;20213;-79
2021/12/12 06:35:35;;;;;;;468.87;426.27;;;8.00;99.90;;;;;;5054557;28;20206;-79
2021/12/12 06:38:08;;;;;;;467.93;426.50;;;7.90;99.90;;;;;;5045483;28;20598;-79
2021/12/12 06:40:34;;;;;;;468.67;426.00;;;8.00;99.90;;;;;;5023149;28;20194;-78
2021/12/12 06:43:03;;;;;;;465.30;423.57;;;8.00;99.90;;;;;;5042417;28;20202;-79
2021/12/12 06:45:29;;;;;;;462.40;420.57;;;8.10;99.90;;;;;;5046869;28;20808;-79
2021/12/12 06:47:56;;;;;;;466.63;425.53;;;8.10;99.90;;;;;;5049355;28;20224;-78
2021/12/12 06:50:23;;;;;;;462.37;420.93;;;8.10;99.90;;;;;;5045524;28;20232;-78
2021/12/12 06:52:50;;;;;;;462.83;420.93;;;8.10;99.90;;;;;;5032812;28;20546;-78
2021/12/12 06:55:16;;;;;;;471.43;430.60;;;8.10;99.90;;;;;;5041581;28;20195;-78
2021/12/12 06:57:42;;;;;;;460.07;419.10;;;8.10;99.90;;;;;;5030618;28;20255;-79
2021/12/12 07:00:15;;;;;;;460.07;419.67;;;8.10;99.90;;;;;;5042460;28;20190;-78
2021/12/12 07:02:43;;;;;;;459.47;417.60;;;8.20;99.90;;;;;;5038756;28;20277;-79
2021/12/12 07:05:13;;;;;;;456.00;414.77;;;8.20;99.90;;;;;;5039301;28;20210;-78
2021/12/12 07:07:39;;;;;;;454.63;413.07;;;8.20;99.90;;;;;;5040983;28;20212;-79
2021/12/12 07:10:07;;;;;;;454.53;412.90;;;8.20;99.90;;;;;;5034882;28;20217;-78
2021/12/12 07:12:34;;;;;;;453.10;411.87;;;8.20;99.90;;;;;;5054796;28;20202;-79
2021/12/12 07:15:01;;;;;;;447.93;408.23;;;8.20;99.90;;;;;;5039924;28;20194;-80
2021/12/12 07:17:27;;;;;;;449.13;408.67;;;8.20;99.90;;;;;;5033068;28;20747;-79
2021/12/12 07:19:53;;;;;;;445.10;403.93;;;8.20;99.90;;;;;;5039059;28;20310;-79
2021/12/12 07:22:20;;;;;;;449.07;409.00;;;8.20;99.90;;;;;;5036895;28;20198;-79
2021/12/12 07:24:46;;;;;;;440.10;400.30;;;8.20;99.90;;;;;;5050439;28;20201;-80
2021/12/12 07:27:17;;;;;;;437.57;398.37;;;8.20;99.90;;;;;;5039219;28;20584;-80
2021/12/12 07:29:44;;;;;;;428.40;390.20;;;8.30;99.90;;;;;;5048872;28;20214;-79
2021/12/12 07:32:10;;;;;;;421.30;383.30;;;8.20;99.90;;;;;;5055134;28;20206;-78
2021/12/12 07:34:37;;;;;;;423.00;385.37;;;8.30;99.90;;;;;;5020708;28;20249;-78
2021/12/12 07:37:06;;;;;;;418.80;381.93;;;8.30;99.90;;;;;;5037649;28;20202;-79
2021/12/12 07:39:33;;;;;;;417.27;379.20;;;8.30;99.90;;;;;;5035431;28;20628;-79
2021/12/12 07:42:02;;;;;;;415.50;378.20;;;8.40;99.90;;;;;;5038336;28;20185;-79
2021/12/12 07:44:35;;;;;;;415.50;378.30;;;8.40;99.90;;;;;;5039605;28;20540;-78
2021/12/12 07:47:02;;;;;;;414.63;377.93;;;8.40;99.90;;;;;;5033535;28;20182;-79
2021/12/12 07:49:31;;;;;;;411.77;374.30;;;8.40;99.90;;;;;;5053625;28;20604;-79
2021/12/12 07:51:57;;;;;;;415.23;378.70;;;8.40;99.90;;;;;;5039584;28;20221;-79
2021/12/12 07:54:23;;;;;;;418.27;381.20;;;8.40;99.90;;;;;;5035396;28;20222;-78
2021/12/12 07:56:49;;;;;;;417.87;380.30;;;8.40;99.90;;;;;;5038710;28;20190;-78
2021/12/12 07:59:17;;;;;;;416.73;380.00;;;8.40;99.90;;;;;;5038381;28;20556;-79
2021/12/12 08:01:47;;;;;;;416.73;380.70;;;8.50;99.90;;;;;;5037096;28;20186;-80
2021/12/12 08:04:15;;;;;;;413.83;377.60;;;8.50;99.90;;;;;;5043754;28;20240;-80
2021/12/12 08:06:42;;;;;;;413.27;376.30;;;8.50;99.90;;;;;;5028816;28;20179;-79
2021/12/12 08:09:09;;;;;;;412.47;374.47;;;8.50;99.90;;;;;;5053289;28;20579;-79
2021/12/12 08:11:35;;;;;;;412.13;375.30;;;8.50;99.90;;;;;;5040879;28;20209;-79
2021/12/12 08:14:05;;;;;;;416.07;380.00;;;8.60;99.90;;;;;;5027131;28;20225;-79
2021/12/12 08:16:31;;;;;;;419.93;383.60;;;8.50;99.90;;;;;;5038053;28;20218;-79
2021/12/12 08:18:58;;;;;;;428.97;393.00;;;8.50;99.90;;;;;;5049468;28;20202;-79
2021/12/12 08:21:24;;;;;;;415.87;379.30;;;8.60;99.90;;;;;;5038214;28;20538;-80
2021/12/12 08:23:52;;;;;;;412.77;376.40;;;8.50;99.90;;;;;;5032889;28;20988;-79
2021/12/12 08:26:19;;;;;;;428.07;391.83;;;8.60;99.90;;;;;;5021700;28;20202;-80
2021/12/12 08:28:45;;;;;;;417.10;379.70;;;8.60;99.90;;;;;;5046276;28;21072;-79
2021/12/12 08:31:12;;;;;;;419.87;381.87;;;8.60;99.90;;;;;;5038079;28;20664;-79
2021/12/12 08:33:38;;;;;;;425.83;387.10;;;8.60;99.90;;;;;;5012734;28;20201;-79
2021/12/12 08:36:04;;;;;;;425.03;387.03;;;8.60;99.90;;;;;;5038699;28;20559;-78
2021/12/12 08:38:31;;;;;;;428.40;389.90;;;8.60;99.90;;;;;;5030865;28;20253;-78
2021/12/12 08:41:02;;;;;;;430.17;391.73;;;8.60;99.90;;;;;;5047448;28;20233;-79
2021/12/12 08:43:29;;;;;;;431.27;392.43;;;8.60;99.90;;;;;;5041341;28;20186;-79
2021/12/12 08:46:05;;;;;;;444.67;406.03;;;8.70;99.90;;;;;;5023013;28;20210;-80
2021/12/12 08:48:34;;;;;;;470.97;429.87;;;8.60;99.90;;;;;;5043731;28;20690;-79
2021/12/12 08:51:04;;;;;;;490.60;446.93;;;8.70;99.90;;;;;;5047256;28;20750;-80
2021/12/12 08:53:32;;;;;;;548.47;499.57;;;8.70;99.90;;;;;;5039744;28;20187;-80
2021/12/12 08:55:58;;;;;;;585.20;533.90;;;8.70;99.90;;;;;;5039173;28;20229;-78
2021/12/12 08:58:28;;;;;;;575.70;524.73;;;8.70;99.90;;;;;;5040723;28;20194;-79
2021/12/12 09:01:04;;;;;;;579.67;528.63;;;8.80;99.90;;;;;;5044720;28;20217;-79
2021/12/12 09:03:56;;;;;;;615.70;561.70;;;8.80;99.90;;;;;;5045273;28;20194;-81
2021/12/12 09:06:31;;;;;;;619.23;564.53;;;8.80;99.90;;;;;;5038952;28;20217;-79
2021/12/12 09:09:10;;;;;;;621.90;567.20;;;8.80;99.90;;;;;;5040407;28;20186;-79
2021/12/12 09:12:02;;;;;;;624.73;569.87;;;8.80;99.90;;;;;;5042631;28;20203;-79
2021/12/12 09:14:45;;;;;;;640.50;586.27;;;8.80;99.90;;;;;;5058968;28;20277;-80
2021/12/12 09:17:18;;;;;;;652.33;597.43;;;8.90;99.90;;;;;;5044133;28;20316;-79
2021/12/12 09:20:10;;;;;;;631.53;576.30;;;8.80;99.90;;;;;;5058269;28;20954;-79
2021/12/12 09:22:42;;;;;;;653.33;598.63;;;8.90;99.90;;;;;;5047063;28;20185;-80
2021/12/12 09:25:16;;;;;;;635.50;580.37;;;8.90;99.90;;;;;;5042964;28;20205;-78
2021/12/12 09:27:45;;;;;;;632.53;577.83;;;8.90;99.90;;;;;;5042152;28;20209;-79
2021/12/12 09:30:18;;;;;;;638.97;584.87;;;8.90;99.90;;;;;;5043076;28;20674;-80
2021/12/12 09:32:47;;;;;;;637.73;583.23;;;8.90;99.90;;;;;;5041823;28;20268;-80
2021/12/12 09:35:29;;;;;;;633.60;578.77;;;8.90;99.90;;;;;;5047438;28;20573;-79
2021/12/12 09:38:08;;;;;;;634.80;579.90;;;8.90;99.90;;;;;;5040729;28;20171;-79
2021/12/12 09:40:55;;;;;;;636.50;581.60;;;8.90;99.90;;;;;;5040132;28;20734;-80
2021/12/12 09:43:52;;;;;;;654.43;599.33;;;8.90;99.90;;;;;;5038980;28;20190;-83
2021/12/12 09:47:11;;;;;;;630.23;575.60;;;8.90;99.90;;;;;;5040444;28;20276;-80
2021/12/12 09:52:48;;;;;;;643.23;588.87;;;8.90;99.90;;;;;;5039448;28;20252;-81
2021/12/12 09:55:24;;;;;;;627.73;573.63;;;8.90;99.90;;;;;;5058168;28;20723;-80
2021/12/12 09:58:04;;;;;;;644.90;590.40;;;9.00;99.90;;;;;;5042886;28;20666;-80
2021/12/12 10:00:43;;;;;;;625.40;571.37;;;9.00;99.90;;;;;;5057705;28;20601;-80
2021/12/12 10:03:33;;;;;;;639.40;584.80;;;9.00;99.90;;;;;;5058172;28;20170;-80
2021/12/12 10:06:14;;;;;;;636.13;581.17;;;9.00;99.90;;;;;;5057541;28;20190;-80
2021/12/12 10:09:08;;;;;;;640.83;585.57;;;9.10;99.90;;;;;;5045778;28;20643;-80
2021/12/12 10:11:57;;;;;;;654.33;598.87;;;9.10;99.90;;;;;;5039497;28;20270;-80
2021/12/12 10:14:35;;;;;;;662.67;607.87;;;9.10;99.90;;;;;;5056519;28;20236;-80
2021/12/12 10:17:21;;;;;;;651.97;596.47;;;9.20;99.90;;;;;;5056247;28;20690;-80
2021/12/12 10:20:29;;;;;;;645.67;590.43;;;9.20;99.90;;;;;;5056935;28;20209;-80
2021/12/12 10:23:16;;;;;;;665.77;609.87;;;9.20;99.90;;;;;;4982617;28;20200;-80
2021/12/12 10:25:54;;;;;;;670.60;615.00;;;9.30;99.90;;;;;;5055730;28;20198;-79
2021/12/12 10:28:43;;;;;;;662.87;607.27;;;9.30;99.90;;;;;;5039255;28;20697;-80
2021/12/12 10:31:36;;;;;;;654.97;599.87;;;9.30;99.90;;;;;;5056296;28;20190;-79
2021/12/12 10:34:15;;;;;;;660.97;605.77;;;9.30;99.90;;;;;;5052733;28;20413;-79
2021/12/12 10:36:52;;;;;;;675.37;619.77;;;9.30;99.90;;;;;;5037494;28;20673;-79
2021/12/12 10:39:25;;;;;;;681.70;626.17;;;9.30;99.90;;;;;;5038503;28;20217;-79
2021/12/12 10:42:02;;;;;;;658.97;603.57;;;9.30;99.90;;;;;;5068643;28;20741;-79
2021/12/12 10:44:36;;;;;;;655.23;599.60;;;9.40;99.90;;;;;;5039120;28;20258;-81
2021/12/12 10:47:14;;;;;;;677.40;621.80;;;9.40;99.90;;;;;;5053393;28;20653;-78
2021/12/12 10:49:56;;;;;;;653.63;598.20;;;9.40;99.90;;;;;;5029313;28;20606;-78
2021/12/12 10:52:48;;;;;;;662.07;606.80;;;9.40;99.90;;;;;;5039368;28;20186;-80
2021/12/12 10:55:21;;;;;;;649.60;593.90;;;9.50;99.90;;;;;;5030374;28;20194;-79
2021/12/12 10:57:57;;;;;;;657.63;601.73;;;9.50;99.90;;;;;;5039489;28;20190;-79
2021/12/12 11:00:33;;;;;;;648.33;592.63;;;9.50;99.90;;;;;;5045822;28;20188;-80
2021/12/12 11:03:08;;;;;;;653.63;598.10;;;9.50;99.90;;;;;;5038840;28;20202;-79
2021/12/12 11:05:47;;;;;;;657.97;602.43;;;9.60;99.90;;;;;;5056386;28;20206;-80
2021/12/12 11:08:25;;;;;;;651.57;595.97;;;9.60;99.90;;;;;;5055227;28;20213;-79
2021/12/12 11:10:53;;;;;;;657.87;602.77;;;9.60;99.90;;;;;;5057278;28;20505;-79
2021/12/12 11:13:27;;;;;;;653.73;598.27;;;9.60;99.90;;;;;;5040374;28;20193;-79
2021/12/12 11:16:17;;;;;;;655.67;600.23;;;9.60;99.90;;;;;;5057089;28;20182;-80
2021/12/12 11:18:58;;;;;;;669.03;613.63;;;9.70;99.90;;;;;;5040918;28;20723;-79
2021/12/12 11:21:31;;;;;;;647.47;592.17;;;9.70;99.90;;;;;;5055693;28;20190;-79
2021/12/12 11:24:03;;;;;;;645.43;590.33;;;9.70;99.90;;;;;;5043666;28;21044;-79
2021/12/12 11:27:00;;;;;;;650.30;595.13;;;9.70;99.90;;;;;;5036104;28;20190;-80
2021/12/12 11:29:38;;;;;;;648.80;593.53;;;9.80;99.90;;;;;;5042175;28;20186;-80
2021/12/12 11:32:09;;;;;;;649.77;594.27;;;9.80;99.90;;;;;;5041933;28;20293;-78
2021/12/12 11:34:35;;;;;;;646.23;590.77;;;9.80;99.90;;;;;;5037761;28;20194;-80
2021/12/12 11:37:14;;;;;;;646.73;591.43;;;9.80;99.90;;;;;;5053813;28;20189;-81
2021/12/12 11:39:49;;;;;;;652.90;597.90;;;9.90;99.90;;;;;;5053665;28;20278;-79
2021/12/12 11:42:27;;;;;;;671.07;615.53;;;9.90;99.90;;;;;;5039267;28;20213;-80
2021/12/12 11:45:28;;;;;;;669.43;614.27;;;9.90;99.90;;;;;;5053569;28;20195;-80
2021/12/12 11:48:18;;;;;;;674.80;619.20;;;9.90;99.90;;;;;;5038083;28;20216;-80
2021/12/12 11:50:52;;;;;;;664.50;609.00;;;10.00;99.90;;;;;;5039669;28;20353;-79
2021/12/12 11:53:37;;;;;;;657.47;602.07;;;10.00;99.90;;;;;;5055454;28;20193;-79
2021/12/12 11:56:05;;;;;;;664.53;608.80;;;10.00;99.90;;;;;;5054860;28;20655;-79
2021/12/12 11:59:04;;;;;;;650.50;595.13;;;10.00;99.90;;;;;;5055074;28;20540;-79
2021/12/12 12:01:32;;;;;;;658.00;602.50;;;10.00;99.90;;;;;;5055213;28;20884;-81
2021/12/12 12:04:31;;;;;;;661.90;606.10;;;10.00;99.90;;;;;;5053955;28;20223;-78
2021/12/12 12:07:12;;;;;;;647.80;592.20;;;10.10;99.90;;;;;;5038122;28;20248;-78
2021/12/12 12:09:44;;;;;;;665.93;610.03;;;10.10;99.90;;;;;;5038425;28;20194;-80
2021/12/12 12:12:41;;;;;;;675.67;620.10;;;10.10;99.90;;;;;;5054993;28;20545;-80
2021/12/12 12:15:10;;;;;;;667.53;611.83;;;10.10;99.90;;;;;;5053700;28;20183;-79
2021/12/12 12:17:57;;;;;;;665.73;609.50;;;10.10;99.90;;;;;;5054128;28;20293;-80
2021/12/12 12:20:48;;;;;;;669.07;613.33;;;10.10;99.90;;;;;;5037978;28;20234;-79
2021/12/12 12:23:18;;;;;;;665.83;610.30;;;10.10;99.90;;;;;;5054430;28;20199;-81
2021/12/12 12:28:56;;;;;;;665.00;607.83;;;10.10;99.90;;;;;;5038119;28;20729;-80
2021/12/12 12:31:36;;;;;;;656.87;600.07;;;10.10;99.90;;;;;;5054764;28;20232;-80
2021/12/12 12:34:38;;;;;;;658.10;601.33;;;10.20;99.90;;;;;;5040590;28;20202;-80
2021/12/12 12:37:29;;;;;;;675.30;618.40;;;10.20;99.90;;;;;;5053691;28;20561;-80
2021/12/12 12:40:29;;;;;;;663.30;605.70;;;10.20;99.90;;;;;;5052304;28;20280;-78
2021/12/12 12:43:20;;;;;;;663.53;606.30;;;10.20;99.90;;;;;;5039871;28;20194;-81
2021/12/12 12:46:23;;;;;;;661.30;603.60;;;10.30;99.90;;;;;;5035205;28;20194;-79
2021/12/12 12:49:14;;;;;;;658.63;600.83;;;10.30;99.90;;;;;;5042370;28;20220;-80
2021/12/12 12:52:26;;;;;;;658.30;600.97;;;10.30;99.90;;;;;;5059391;28;20636;-80
2021/12/12 12:55:30;;;;;;;658.17;599.80;;;10.30;99.90;;;;;;5060361;28;20295;-79
2021/12/12 12:58:10;;;;;;;673.60;615.40;;;10.40;99.90;;;;;;5059100;28;20189;-80
2021/12/12 13:00:37;;;;;;;660.57;602.33;;;10.40;99.90;;;;;;5045216;28;20185;-81
2021/12/12 13:03:16;;;;;;;650.17;592.03;;;10.40;99.90;;;;;;5049448;28;21881;-81
2021/12/12 13:06:07;;;;;;;651.93;593.87;;;10.40;99.90;;;;;;5062569;28;20274;-82
2021/12/12 13:09:03;;;;;;;658.30;600.33;;;10.50;99.90;;;;;;5081368;28;20600;-81
2021/12/12 13:11:50;;;;;;;664.90;607.40;;;10.50;99.90;;;;;;5051466;28;20728;-80
2021/12/12 13:14:27;;;;;;;672.23;613.77;;;10.50;99.90;;;;;;5049917;28;20181;-79
2021/12/12 13:16:53;;;;;;;659.93;600.87;;;10.50;99.90;;;;;;5058725;28;20669;-81